BKPR

Priština International Airport

Prishtina, Kosovo
METAR BKPR 170000Z VRB01KT 8000 SCT070 M07/M09 Q1018 NOSIG RMK 17290195
Observed Flight Rules
Dec-17 @ 00:00 UTC (22 minutes ago) Marginal Visual Flight Rules
Wind Visibility Clouds
Variable at 1 knots 7,998 meters
  • Scattered at 7,000' AGL
Temperatures Readings
Current -7°C / 19°F
Dewpoint -9°C / 16°F
Humidity 86%
Altimeter 30.06" Hg
Pressure 1018 hPa
Elevation 576
METAR BKPR 170000Z VRB01KT 8000 SCT070 M07/M09 Q1018 NOSIG RMK 17290195
Observed Flight Rules
Dec-17 @ 00:00 UTC
(22 minutes ago)
MVFR
Wind Visibility
Variable at 1 knots 7,998 meters
Clouds
  • Scattered at 7,000' AGL
Temperature Dewpoint
-7°C / 19°F -9°C / 16°F
Humidity Altimeter Pressure
86% 30.06" Hg 1018 hPa